Time;durP1;ratioP1;P1;durP2;ratioP2;P2;SDS_P1;SDS_P2;PMS_P1;PMS_P2;Temp;Humidity;BMP_temperature;BMP_pressure;BME280_temperature;BME280_humidity;BME280_pressure;Samples;Min_cycle;Max_cycle;Signal;HPM_P1;HPM_P2
2020/12/08 00:00:15;;;;;;;15.70;6.78;;;;;;;-5.42;66.48;100402.83;1783407;80;21158;-62
2020/12/08 00:02:43;;;;;;;;;;;;;;;-5.43;66.60;100400.23;1785675;79;21502;-62
2020/12/08 00:05:10;;;;;;;12.05;7.00;;;;;;;-5.50;66.69;100397.00;1783409;80;20229;-62
2020/12/08 00:07:38;;;;;;;14.03;7.17;;;;;;;-5.59;66.99;100391.17;1783373;80;21110;-62
2020/12/08 00:10:06;;;;;;;11.97;6.20;;;;;;;-5.62;67.33;100399.55;1783357;80;21146;-62
2020/12/08 00:12:34;;;;;;;10.43;6.20;;;;;;;-5.67;67.49;100394.70;1783281;80;21091;-62
2020/12/08 00:15:02;;;;;;;11.73;6.62;;;;;;;-5.73;67.73;100393.20;1783370;80;21031;-62
2020/12/08 00:17:31;;;;;;;12.63;6.97;;;;;;;-5.76;67.97;100397.28;1783394;80;21111;-62
2020/12/08 00:20:00;;;;;;;12.68;6.33;;;;;;;-5.77;68.24;100396.81;1757958;80;21099;-62
2020/12/08 00:22:28;;;;;;;13.32;6.85;;;;;;;-5.77;68.48;100397.67;1783366;80;21263;-62
2020/12/08 00:24:55;;;;;;;14.68;7.40;;;;;;;-5.78;68.59;100404.81;1783349;79;21079;-62
2020/12/08 00:27:23;;;;;;;11.85;7.30;;;;;;;-5.76;68.75;100404.47;1783373;80;21081;-62
2020/12/08 00:29:50;;;;;;;10.45;6.53;;;;;;;-5.70;68.93;100395.84;1783454;79;21127;-62
2020/12/08 00:32:18;;;;;;;12.03;6.37;;;;;;;-5.63;68.81;100402.89;1783332;80;21703;-61
2020/12/08 00:34:46;;;;;;;10.48;7.03;;;;;;;-5.58;68.67;100403.04;1783327;80;21189;-62
2020/12/08 00:37:13;;;;;;;11.93;7.50;;;;;;;-5.59;68.69;100394.57;1783259;80;21091;-61
2020/12/08 00:39:40;;;;;;;10.58;6.03;;;;;;;-5.53;68.64;100396.48;1783357;80;21543;-61
2020/12/08 00:42:08;;;;;;;13.95;6.90;;;;;;;-5.53;68.61;100393.95;1783353;80;21102;-61
2020/12/08 00:44:36;;;;;;;11.55;7.58;;;;;;;-5.56;68.60;100388.76;1783359;80;21071;-62
2020/12/08 00:47:04;;;;;;;12.18;6.55;;;;;;;-5.58;68.74;100391.64;1783365;80;21367;-62
2020/12/08 00:49:32;;;;;;;10.25;6.33;;;;;;;-5.56;68.85;100395.09;1783300;80;21588;-61
2020/12/08 00:51:59;;;;;;;13.55;6.62;;;;;;;-5.53;68.63;100394.34;1783313;80;21544;-61
2020/12/08 00:54:28;;;;;;;13.43;6.60;;;;;;;-5.62;68.62;100380.55;1805908;78;21127;-61
2020/12/08 00:56:56;;;;;;;14.20;6.67;;;;;;;-5.68;68.94;100381.97;1815842;79;21775;-61
2020/12/08 00:59:24;;;;;;;12.18;6.72;;;;;;;-5.73;69.06;100375.86;1815744;79;22346;-61
2020/12/08 01:01:51;;;;;;;10.53;6.60;;;;;;;-5.73;69.21;100382.20;1815647;79;21079;-61
2020/12/08 01:04:19;;;;;;;12.25;7.25;;;;;;;-5.72;69.41;100365.78;1786372;79;21070;-61
2020/12/08 01:06:47;;;;;;;9.48;6.72;;;;;;;-5.71;69.55;100367.52;1815826;79;21600;-63
2020/12/08 01:09:15;;;;;;;12.93;6.78;;;;;;;-5.66;69.59;100368.56;1815755;79;21048;-61
2020/12/08 01:11:43;;;;;;;14.23;7.50;;;;;;;-5.64;69.62;100372.42;1815715;78;21366;-61
2020/12/08 01:14:12;;;;;;;11.55;6.47;;;;;;;-5.61;69.69;100371.27;1815813;79;21063;-62
2020/12/08 01:16:41;;;;;;;14.95;6.90;;;;;;;-5.59;69.67;100377.23;1815925;79;21107;-63
2020/12/08 01:19:08;;;;;;;10.30;5.78;;;;;;;-5.58;69.75;100370.95;1815890;79;21134;-62
2020/12/08 01:21:36;;;;;;;12.78;6.55;;;;;;;-5.58;69.80;100368.83;1815941;79;21468;-63
2020/12/08 01:24:04;;;;;;;17.67;7.50;;;;;;;-5.58;69.88;100372.63;1815897;79;21304;-61
2020/12/08 01:26:31;;;;;;;11.45;6.42;;;;;;;-5.57;70.01;100370.16;1815825;79;21898;-61
2020/12/08 01:29:01;;;;;;;14.87;7.30;;;;;;;-5.52;70.05;100371.59;1815865;79;21115;-61
2020/12/08 01:31:32;;;;;;;19.48;7.97;;;;;;;-5.50;69.99;100366.59;1815607;79;21107;-61
2020/12/08 01:34:02;;;;;;;15.60;7.30;;;;;;;-5.49;70.10;100369.58;1815103;79;21059;-62
2020/12/08 01:36:31;;;;;;;12.68;7.65;;;;;;;-5.41;69.93;100382.15;1786723;78;21370;-62
2020/12/08 01:38:59;;;;;;;14.38;7.53;;;;;;;-5.38;69.72;100379.70;1786564;79;21106;-61
2020/12/08 01:41:27;;;;;;;12.43;6.62;;;;;;;-5.40;69.71;100380.08;1815995;79;21574;-61
2020/12/08 01:43:55;;;;;;;15.93;7.40;;;;;;;-5.45;69.77;100381.57;1816207;79;21507;-62
2020/12/08 01:46:26;;;;;;;10.65;6.90;;;;;;;-5.48;69.91;100361.17;1815927;79;21059;-62
2020/12/08 01:48:54;;;;;;;15.95;8.75;;;;;;;-5.53;70.11;100369.00;1815913;79;21193;-62
2020/12/08 01:51:22;;;;;;;14.58;7.37;;;;;;;-5.56;70.29;100373.15;1815877;79;21064;-62
2020/12/08 01:53:52;;;;;;;12.63;7.72;;;;;;;-5.55;70.48;100373.61;1805357;78;21143;-62
2020/12/08 01:56:20;;;;;;;12.82;7.25;;;;;;;-5.51;70.56;100371.19;1783485;80;21048;-62
2020/12/08 01:58:50;;;;;;;13.90;8.00;;;;;;;-5.45;70.66;100365.95;1783215;80;21122;-61
2020/12/08 02:01:18;;;;;;;15.88;7.78;;;;;;;-5.38;70.46;100365.35;1783489;80;21195;-62
2020/12/08 02:03:48;;;;;;;13.40;7.58;;;;;;;-5.32;70.46;100365.98;1783411;80;21091;-61
2020/12/08 02:06:15;;;;;;;16.32;7.75;;;;;;;-5.27;70.27;100358.15;1757844;80;21067;-62
2020/12/08 02:08:43;;;;;;;15.95;8.40;;;;;;;-5.25;70.20;100358.66;1783481;80;21130;-62
2020/12/08 02:11:13;;;;;;;11.22;7.42;;;;;;;-5.24;70.18;100353.19;1782692;80;21063;-62
2020/12/08 02:13:41;;;;;;;10.03;6.62;;;;;;;-5.23;70.13;100351.11;1783437;80;21368;-61
2020/12/08 02:16:09;;;;;;;12.95;7.87;;;;;;;-5.27;70.16;100346.73;1783417;80;21134;-62
2020/12/08 02:18:36;;;;;;;14.07;7.97;;;;;;;-5.30;70.25;100352.96;1783465;79;21047;-62
2020/12/08 02:21:05;;;;;;;10.40;6.45;;;;;;;-5.30;70.40;100354.23;1783403;80;21067;-63
2020/12/08 02:23:34;;;;;;;12.07;6.70;;;;;;;-5.32;70.33;100348.23;1783232;79;21076;-62
2020/12/08 02:26:05;;;;;;;12.07;6.50;;;;;;;-5.37;70.41;100352.27;1783468;80;21203;-61
2020/12/08 02:28:34;;;;;;;12.00;6.80;;;;;;;-5.41;70.49;100351.33;1757267;80;21508;-62
2020/12/08 02:31:04;;;;;;;11.63;7.28;;;;;;;-5.46;70.72;100349.02;1783293;80;21074;-63
2020/12/08 02:33:31;;;;;;;13.53;7.55;;;;;;;-5.50;70.95;100345.91;1783366;80;21055;-62
2020/12/08 02:36:02;;;;;;;13.00;7.50;;;;;;;-5.49;71.21;100345.50;1757281;80;21473;-62
2020/12/08 02:38:30;;;;;;;11.83;7.12;;;;;;;-5.42;71.15;100351.27;1783402;80;21567;-62
2020/12/08 02:40:58;;;;;;;13.20;6.83;;;;;;;-5.39;71.03;100350.95;1783373;80;21547;-62
2020/12/08 02:43:26;;;;;;;11.55;7.15;;;;;;;-5.39;71.07;100348.41;1783447;80;21055;-62
2020/12/08 02:45:58;;;;;;;13.25;7.28;;;;;;;-5.39;71.14;100350.08;1783402;80;21047;-62
2020/12/08 02:48:26;;;;;;;16.32;8.85;;;;;;;-5.41;71.19;100351.33;1783487;79;21059;-61
2020/12/08 02:50:57;;;;;;;19.40;10.43;;;;;;;-5.45;71.31;100348.21;1783048;80;21311;-61
2020/12/08 02:53:25;;;;;;;16.75;10.10;;;;;;;-5.50;71.31;100347.17;1783283;78;21086;-62
2020/12/08 02:55:55;;;;;;;12.20;7.37;;;;;;;-5.50;71.55;100350.97;1783541;80;21042;-61
2020/12/08 02:58:22;;;;;;;12.50;8.30;;;;;;;-5.48;71.69;100339.63;1783369;80;21483;-62
2020/12/08 03:00:50;;;;;;;15.53;8.10;;;;;;;-5.50;71.64;100335.77;1783519;80;21562;-62
2020/12/08 03:03:18;;;;;;;15.13;7.75;;;;;;;-5.50;71.71;100334.50;1783427;80;21367;-62
2020/12/08 03:05:46;;;;;;;14.80;8.33;;;;;;;-5.47;71.73;100327.41;1783371;80;21059;-62
2020/12/08 03:08:14;;;;;;;14.78;8.15;;;;;;;-5.42;71.78;100333.12;1783519;79;21460;-62
2020/12/08 03:10:42;;;;;;;14.33;8.35;;;;;;;-5.34;71.73;100325.77;1783488;80;22057;-62
2020/12/08 03:13:11;;;;;;;16.57;8.58;;;;;;;-5.29;71.62;100326.80;1783493;80;21098;-61
2020/12/08 03:15:40;;;;;;;15.15;9.25;;;;;;;-5.24;71.69;100324.03;1783499;79;22087;-61
2020/12/08 03:18:09;;;;;;;15.28;8.33;;;;;;;-5.17;71.59;100333.56;1783362;80;21107;-61
2020/12/08 03:20:36;;;;;;;15.43;8.55;;;;;;;-5.11;71.34;100329.98;1783431;80;21043;-62
2020/12/08 03:23:06;;;;;;;12.73;7.97;;;;;;;-5.07;71.14;100324.61;1783546;80;21047;-61
2020/12/08 03:25:35;;;;;;;13.75;7.75;;;;;;;-5.06;70.96;100328.47;1783420;79;21059;-62
2020/12/08 03:28:04;;;;;;;16.25;9.10;;;;;;;-5.07;70.72;100334.35;1783431;80;21331;-61
2020/12/08 03:30:33;;;;;;;16.60;8.80;;;;;;;-5.09;70.76;100337.23;1783374;80;21091;-62
2020/12/08 03:33:03;;;;;;;17.75;10.80;;;;;;;-5.11;70.56;100331.65;1783386;80;21062;-61
2020/12/08 03:35:32;;;;;;;13.30;8.08;;;;;;;-5.16;70.75;100337.83;1743881;82;21067;-62
2020/12/08 03:37:59;;;;;;;13.93;7.50;;;;;;;-5.16;70.81;100339.49;1777834;80;21122;-62
2020/12/08 03:40:28;;;;;;;17.25;9.53;;;;;;;-5.20;70.89;100338.55;1777875;80;21370;-62
2020/12/08 03:42:56;;;;;;;12.70;8.63;;;;;;;-5.24;70.99;100342.64;1754098;80;21051;-62
2020/12/08 03:45:26;;;;;;;17.90;8.35;;;;;;;-5.24;71.17;100336.71;1777908;80;21059;-61
2020/12/08 03:48:03;;;;;;;11.43;7.25;;;;;;;-5.15;71.25;100339.95;1873636;76;22698;-61
2020/12/08 03:50:33;;;;;;;13.60;7.12;;;;;;;-5.21;71.16;100344.03;1839986;77;21046;-62
2020/12/08 03:53:01;;;;;;;12.33;7.17;;;;;;;-5.24;71.12;100340.52;1811328;78;21383;-62
2020/12/08 03:55:31;;;;;;;11.68;7.58;;;;;;;-5.32;71.06;100335.16;1840795;78;20981;-62
2020/12/08 03:58:00;;;;;;;10.08;6.25;;;;;;;-5.42;71.23;100329.31;1841563;77;20919;-61
2020/12/08 04:00:27;;;;;;;14.25;7.87;;;;;;;-5.45;71.49;100334.67;1841537;78;21564;-62
2020/12/08 04:02:55;;;;;;;15.45;7.33;;;;;;;-5.50;71.54;100329.43;1841565;77;21144;-61
2020/12/08 04:05:25;;;;;;;12.50;7.58;;;;;;;-5.52;71.80;100323.84;1841555;77;23271;-62
2020/12/08 04:07:53;;;;;;;10.98;6.85;;;;;;;-5.56;71.98;100319.92;1841488;77;20927;-61
2020/12/08 04:10:23;;;;;;;11.97;7.70;;;;;;;-5.51;72.04;100327.70;1841275;78;21054;-61
2020/12/08 04:12:51;;;;;;;12.58;7.67;;;;;;;-5.49;72.03;100313.82;1841542;78;21037;-61
2020/12/08 04:15:18;;;;;;;11.70;6.95;;;;;;;-5.50;72.08;100310.83;1841619;77;21522;-62
2020/12/08 04:17:46;;;;;;;13.03;7.45;;;;;;;-5.50;72.07;100314.22;1841476;77;21091;-62
2020/12/08 04:20:14;;;;;;;12.78;7.85;;;;;;;-5.48;72.03;100317.67;1841465;77;21081;-62
2020/12/08 04:22:42;;;;;;;12.70;7.28;;;;;;;-5.47;72.04;100310.53;1841522;77;21482;-62
2020/12/08 04:25:10;;;;;;;10.75;7.15;;;;;;;-5.50;72.10;100314.22;1841521;78;21026;-62
2020/12/08 04:27:38;;;;;;;11.33;7.17;;;;;;;-5.50;72.26;100320.56;1841631;78;21546;-62
2020/12/08 04:30:07;;;;;;;12.05;6.95;;;;;;;-5.49;72.30;100311.28;1841505;77;21342;-62
2020/12/08 04:32:38;;;;;;;12.70;7.67;;;;;;;-5.50;72.20;100307.88;1841325;77;21108;-62
2020/12/08 04:35:06;;;;;;;12.75;7.45;;;;;;;-5.50;72.33;100318.42;1841511;77;21165;-62
2020/12/08 04:37:33;;;;;;;15.83;7.95;;;;;;;-5.50;72.50;100319.29;1823668;78;21045;-62
2020/12/08 04:40:01;;;;;;;13.08;8.30;;;;;;;-5.49;72.59;100318.48;1808465;79;21049;-62
2020/12/08 04:42:29;;;;;;;15.10;8.20;;;;;;;-5.47;72.51;100321.08;1808473;79;21284;-62
2020/12/08 04:44:58;;;;;;;17.85;9.48;;;;;;;-5.50;72.53;100314.22;1779661;79;21152;-63
2020/12/08 04:47:26;;;;;;;16.05;8.53;;;;;;;-5.52;72.56;100314.97;1787331;79;21159;-62
2020/12/08 04:49:54;;;;;;;17.17;8.75;;;;;;;-5.49;72.55;100313.82;1817020;79;21049;-61
2020/12/08 04:52:21;;;;;;;16.87;8.73;;;;;;;-5.43;72.57;100310.25;1817037;79;21077;-61
2020/12/08 04:54:49;;;;;;;15.15;8.03;;;;;;;-5.43;72.49;100306.04;1817032;79;21359;-61
2020/12/08 04:57:17;;;;;;;14.73;8.23;;;;;;;-5.42;72.57;100295.09;1816890;79;21029;-62
2020/12/08 04:59:44;;;;;;;14.15;8.85;;;;;;;-5.42;72.46;100305.64;1816540;78;21514;-62
2020/12/08 05:02:13;;;;;;;16.55;7.83;;;;;;;-5.44;72.58;100307.25;1816459;79;20938;-62
2020/12/08 05:04:41;;;;;;;15.98;8.90;;;;;;;-5.45;72.42;100309.33;1816473;78;21046;-61
2020/12/08 05:07:08;;;;;;;12.60;8.20;;;;;;;-5.49;72.39;100309.61;1816422;79;21355;-62
2020/12/08 05:09:46;;;;;;;13.70;8.18;;;;;;;-5.55;72.38;100308.98;1816469;78;21136;-63
2020/12/08 05:12:23;;;;;;;15.68;8.08;;;;;;;-5.59;72.46;100319.80;1816506;79;21061;-62
2020/12/08 05:14:51;;;;;;;13.80;7.67;;;;;;;-5.61;72.66;100317.65;1816590;79;21482;-62
2020/12/08 05:17:23;;;;;;;12.85;7.65;;;;;;;-5.61;72.78;100319.32;1816471;79;21120;-62
2020/12/08 05:20:08;;;;;;;15.20;7.95;;;;;;;-5.62;72.83;100323.92;1816679;79;21477;-62
2020/12/08 05:22:36;;;;;;;12.63;8.30;;;;;;;-5.63;72.99;100332.34;1816464;79;20969;-62
2020/12/08 05:25:11;;;;;;;18.37;8.23;;;;;;;-5.66;73.13;100328.02;1816431;79;21048;-62
2020/12/08 05:27:44;;;;;;;21.25;9.05;;;;;;;-5.62;73.27;100320.99;1816438;78;21096;-62
2020/12/08 05:30:12;;;;;;;20.90;11.08;;;;;;;-5.57;73.30;100323.27;1815937;78;21052;-62
2020/12/08 05:32:41;;;;;;;15.15;7.72;;;;;;;-5.53;73.25;100328.05;1816425;79;21533;-62
2020/12/08 05:35:13;;;;;;;15.25;8.75;;;;;;;-5.44;73.10;100331.33;1816452;79;21509;-62
2020/12/08 05:37:42;;;;;;;;;;;;;;;-5.39;72.97;100335.73;1819113;77;21061;-62
2020/12/08 05:40:15;;;;;;;15.85;7.33;;;;;;;-5.36;72.71;100332.05;1759739;81;20243;-62
2020/12/08 05:42:46;;;;;;;16.52;8.50;;;;;;;-5.38;72.75;100334.06;1759714;81;21474;-62
2020/12/08 05:45:16;;;;;;;21.02;9.33;;;;;;;-5.40;72.77;100336.58;1759764;80;22328;-62
2020/12/08 05:47:56;;;;;;;14.58;8.45;;;;;;;-5.38;72.81;100336.20;1757236;80;21471;-61
2020/12/08 05:50:26;;;;;;;15.23;8.58;;;;;;;-5.37;72.74;100339.59;1755851;81;21050;-61
2020/12/08 05:52:58;;;;;;;15.63;7.40;;;;;;;-5.38;72.84;100341.67;1755972;81;21070;-61
2020/12/08 05:55:31;;;;;;;13.13;8.43;;;;;;;-5.37;72.73;100342.13;1755786;81;21180;-63
2020/12/08 05:58:06;;;;;;;19.75;8.03;;;;;;;-5.37;72.62;100347.20;1755941;80;21338;-62
2020/12/08 06:00:34;;;;;;;19.37;8.03;;;;;;;-5.37;72.72;100341.73;1755906;81;20935;-63
2020/12/08 06:03:14;;;;;;;18.80;9.13;;;;;;;-5.35;72.69;100341.78;1755891;81;21058;-62
2020/12/08 06:05:45;;;;;;;14.83;9.25;;;;;;;-5.36;72.69;100347.26;1755921;81;21067;-62
2020/12/08 06:08:20;;;;;;;16.33;8.70;;;;;;;-5.36;72.69;100352.73;1755133;81;21142;-65
2020/12/08 06:10:52;;;;;;;19.62;9.03;;;;;;;-5.35;72.79;100352.79;1753265;81;21363;-64
2020/12/08 06:13:26;;;;;;;22.07;9.90;;;;;;;-5.31;72.82;100357.58;1745484;82;21206;-66
2020/12/08 06:16:01;;;;;;;21.07;10.05;;;;;;;-5.27;72.74;100354.34;1746273;80;21079;-62
2020/12/08 06:18:33;;;;;;;18.12;8.83;;;;;;;-5.19;72.81;100350.39;1747865;82;21163;-63
2020/12/08 06:21:04;;;;;;;14.98;8.68;;;;;;;-5.11;72.59;100359.55;1746864;80;21444;-64
2020/12/08 06:23:32;;;;;;;21.68;8.95;;;;;;;-5.05;72.28;100362.31;1746735;80;21382;-64
2020/12/08 06:26:01;;;;;;;17.07;8.73;;;;;;;-5.09;72.22;100356.66;1746448;82;21194;-63
2020/12/08 06:28:30;;;;;;;16.52;8.70;;;;;;;-5.12;72.21;100362.89;1746824;82;21114;-64
2020/12/08 06:31:09;;;;;;;15.03;8.28;;;;;;;-5.16;72.12;100366.13;1747424;82;21129;-63
2020/12/08 06:33:52;;;;;;;15.15;7.85;;;;;;;-5.22;72.30;100361.72;1745673;82;21158;-63
2020/12/08 06:36:24;;;;;;;20.43;8.83;;;;;;;-5.27;72.31;100364.09;1746814;80;22204;-63
2020/12/08 06:39:02;;;;;;;15.72;8.90;;;;;;;-5.31;72.57;100366.05;1747756;82;21083;-63
2020/12/08 06:41:42;;;;;;;17.00;9.50;;;;;;;-5.29;72.93;100364.83;1746975;80;21209;-64
2020/12/08 06:44:19;;;;;;;19.10;9.60;;;;;;;-5.26;73.11;100370.89;1745504;80;21110;-63
2020/12/08 06:46:54;;;;;;;20.35;12.25;;;;;;;-5.24;73.14;100370.94;1745364;80;21114;-66
2020/12/08 06:49:24;;;;;;;17.65;9.98;;;;;;;-5.25;73.06;100378.95;1745137;82;21374;-62
2020/12/08 06:51:56;;;;;;;18.50;10.35;;;;;;;-5.29;73.33;100380.91;1745277;80;21119;-65
2020/12/08 06:54:27;;;;;;;14.28;9.03;;;;;;;-5.31;73.29;100377.45;1745453;82;21142;-65
2020/12/08 06:57:03;;;;;;;19.37;10.75;;;;;;;-5.37;73.36;100375.95;1746185;82;21133;-62
2020/12/08 06:59:30;;;;;;;22.20;12.03;;;;;;;-5.42;73.62;100377.88;1746811;82;21472;-65
2020/12/08 07:01:59;;;;;;;16.50;10.28;;;;;;;-5.43;73.86;100368.55;1746295;82;21213;-62
2020/12/08 07:04:30;;;;;;;18.30;9.75;;;;;;;-5.37;74.03;100365.81;1746653;81;21147;-63
2020/12/08 07:07:00;;;;;;;17.07;9.45;;;;;;;-5.31;74.02;100375.32;1746246;80;21146;-64
2020/12/08 07:09:37;;;;;;;28.70;15.05;;;;;;;-5.25;73.78;100373.88;1718956;82;21562;-64
2020/12/08 07:12:06;;;;;;;21.68;11.50;;;;;;;-5.25;73.97;100372.61;1735745;82;21621;-64
2020/12/08 07:14:37;;;;;;;23.92;9.28;;;;;;;-5.21;74.19;100367.25;1745103;82;21389;-66
2020/12/08 07:17:06;;;;;;;21.62;11.57;;;;;;;-5.18;73.80;100372.41;1745658;80;21177;-63
2020/12/08 07:19:34;;;;;;;18.07;9.63;;;;;;;-5.23;73.63;100366.33;1745615;82;21198;-61
2020/12/08 07:22:08;;;;;;;16.65;8.58;;;;;;;-5.26;74.02;100366.22;1747393;82;21158;-63
2020/12/08 07:24:32;;;;;;;16.35;8.43;;;;;;;-5.25;73.83;100364.14;1746827;80;21132;-62
2020/12/08 07:27:01;;;;;;;17.55;9.35;;;;;;;-5.26;73.68;100367.48;1714274;82;21223;-61
2020/12/08 07:29:30;;;;;;;17.25;8.55;;;;;;;-5.27;73.51;100355.61;1745541;82;21191;-64
2020/12/08 07:31:58;;;;;;;14.63;8.00;;;;;;;-5.26;73.76;100367.48;1731132;80;21655;-65
2020/12/08 07:34:38;;;;;;;15.05;7.72;;;;;;;-5.22;73.60;100370.59;1737316;80;21210;-70
2020/12/08 07:37:15;;;;;;;12.58;8.53;;;;;;;-5.19;73.43;100369.84;1714767;82;21201;-67
2020/12/08 07:39:48;;;;;;;16.27;8.93;;;;;;;-5.18;73.09;100363.94;1715158;82;21217;-65
2020/12/08 07:42:18;;;;;;;12.75;8.23;;;;;;;-5.20;73.31;100366.45;1716855;82;21213;-65
2020/12/08 07:44:56;;;;;;;12.75;7.87;;;;;;;-5.22;73.51;100370.59;1691321;83;21597;-63
2020/12/08 07:47:24;;;;;;;15.63;10.43;;;;;;;-5.20;73.51;100366.45;1744716;82;21173;-62
2020/12/08 07:49:52;;;;;;;13.53;8.13;;;;;;;-5.16;73.59;100375.86;1746503;82;21644;-63
2020/12/08 07:52:20;;;;;;;14.07;7.42;;;;;;;-5.07;73.21;100369.86;1741335;80;21158;-63
2020/12/08 07:54:49;;;;;;;13.20;8.48;;;;;;;-4.98;72.87;100368.90;1739830;80;21519;-64
2020/12/08 07:57:17;;;;;;;15.60;7.83;;;;;;;-4.97;72.47;100364.28;1730506;82;21180;-66
2020/12/08 07:59:45;;;;;;;16.62;8.95;;;;;;;-4.95;72.39;100363.07;1731804;82;21044;-63
2020/12/08 08:02:12;;;;;;;15.70;9.55;;;;;;;-4.88;72.68;100365.02;1735853;82;21651;-62
2020/12/08 08:04:40;;;;;;;14.78;7.40;;;;;;;-4.74;72.51;100367.62;1718383;82;22681;-66
2020/12/08 08:07:12;;;;;;;15.08;7.85;;;;;;;-4.63;72.26;100359.11;1745294;82;21278;-63
2020/12/08 08:09:44;;;;;;;14.30;8.18;;;;;;;-4.54;71.66;100363.20;1745236;82;21202;-64
2020/12/08 08:12:12;;;;;;;15.13;8.33;;;;;;;-4.47;72.01;100353.72;1745448;82;21131;-63
2020/12/08 08:14:43;;;;;;;16.97;9.50;;;;;;;-4.38;71.76;100345.52;1744724;81;21178;-65
2020/12/08 08:17:11;;;;;;;17.05;9.83;;;;;;;-4.30;71.43;100349.17;1744067;82;21438;-63
2020/12/08 08:19:39;;;;;;;15.32;8.00;;;;;;;-4.18;71.79;100347.02;1743394;81;21214;-64
2020/12/08 08:22:07;;;;;;;13.20;7.45;;;;;;;-4.02;70.95;100344.56;1743827;82;21174;-62
2020/12/08 08:24:35;;;;;;;10.90;7.47;;;;;;;-3.96;69.89;100339.24;1744568;82;21239;-63
2020/12/08 08:27:05;;;;;;;12.93;8.03;;;;;;;-3.94;69.58;100340.16;1743676;82;21793;-62
2020/12/08 08:29:32;;;;;;;15.23;8.43;;;;;;;-3.93;69.35;100335.94;1743817;82;21406;-62
2020/12/08 08:32:01;;;;;;;15.30;9.03;;;;;;;-3.89;69.27;100334.81;1745468;80;21192;-62
2020/12/08 08:34:29;;;;;;;12.78;7.47;;;;;;;-3.78;68.93;100332.98;1745930;82;21164;-64
2020/12/08 08:36:58;;;;;;;11.38;7.45;;;;;;;-3.72;68.67;100330.22;1746933;81;21222;-65
2020/12/08 08:39:26;;;;;;;10.85;7.25;;;;;;;-3.72;68.29;100327.68;1746558;82;21200;-62
2020/12/08 08:41:55;;;;;;;13.75;7.33;;;;;;;-3.76;68.38;100329.67;1747910;81;21397;-62
2020/12/08 08:44:24;;;;;;;12.85;7.67;;;;;;;-3.74;68.37;100334.39;1717919;83;21121;-62
2020/12/08 08:46:53;;;;;;;14.55;7.75;;;;;;;-3.77;67.60;100331.75;1737585;80;21169;-62
2020/12/08 08:49:21;;;;;;;11.38;6.55;;;;;;;-3.81;67.51;100328.70;1733489;81;21121;-65
2020/12/08 08:51:49;;;;;;;10.08;6.83;;;;;;;-3.88;67.11;100327.64;1732707;82;21145;-64
2020/12/08 08:54:18;;;;;;;12.75;7.17;;;;;;;-3.95;67.15;100329.53;1733338;82;21247;-65
2020/12/08 08:56:46;;;;;;;14.45;8.35;;;;;;;-3.90;67.57;100325.86;1733033;81;21204;-66
2020/12/08 08:59:14;;;;;;;15.35;8.00;;;;;;;-3.78;67.23;100316.45;1738115;81;21171;-62
2020/12/08 09:01:42;;;;;;;13.30;6.85;;;;;;;-3.66;66.98;100324.05;1727754;82;21251;-63
2020/12/08 09:04:11;;;;;;;18.45;7.33;;;;;;;-3.62;66.19;100319.92;1732123;82;21715;-64
2020/12/08 09:06:40;;;;;;;15.98;6.97;;;;;;;-3.71;65.66;100323.45;1732325;81;22711;-65
2020/12/08 09:09:09;;;;;;;12.70;6.37;;;;;;;-3.82;65.39;100321.89;1732606;81;21822;-64
2020/12/08 09:11:37;;;;;;;14.07;6.80;;;;;;;-3.90;65.07;100309.34;1717321;81;21215;-65
2020/12/08 09:14:06;;;;;;;9.63;6.10;;;;;;;-3.96;65.39;100314.23;1735028;81;21257;-65
2020/12/08 09:16:35;;;;;;;20.25;6.05;;;;;;;-3.93;65.70;100313.06;1735905;82;21098;-62
2020/12/08 09:19:03;;;;;;;16.87;7.10;;;;;;;-3.87;65.61;100303.09;1736129;81;21498;-62
2020/12/08 09:21:31;;;;;;;11.55;6.90;;;;;;;-3.78;66.05;100307.56;1736068;81;21175;-64
2020/12/08 09:24:00;;;;;;;16.25;6.45;;;;;;;-3.73;65.84;100306.89;1736202;82;21202;-63
2020/12/08 09:26:28;;;;;;;12.98;6.70;;;;;;;-3.66;65.61;100301.58;1736220;82;21077;-62
2020/12/08 09:28:57;;;;;;;10.60;6.08;;;;;;;-3.62;65.11;100295.36;1735680;82;21207;-62
2020/12/08 09:31:25;;;;;;;15.85;7.28;;;;;;;-3.65;64.84;100291.45;1734830;82;21200;-62
2020/12/08 09:33:54;;;;;;;14.93;6.83;;;;;;;-3.70;65.41;100292.14;1734888;82;21159;-63
2020/12/08 09:36:28;;;;;;;13.45;7.40;;;;;;;-3.72;65.45;100293.36;1741302;80;21188;-64
2020/12/08 09:38:57;;;;;;;12.05;5.75;;;;;;;-3.73;65.78;100295.45;1724795;82;21189;-63
2020/12/08 09:41:25;;;;;;;14.15;7.33;;;;;;;-3.69;65.41;100300.22;1761231;80;21212;-63
2020/12/08 09:43:55;;;;;;;10.85;5.95;;;;;;;-3.71;65.94;100293.81;1747205;80;21368;-62
2020/12/08 09:46:23;;;;;;;13.00;6.75;;;;;;;-3.67;65.40;100287.14;1746400;82;21199;-63
2020/12/08 09:48:51;;;;;;;21.87;6.90;;;;;;;-3.67;65.30;100282.92;1746100;82;21508;-62
2020/12/08 09:51:20;;;;;;;11.55;6.67;;;;;;;-3.67;65.18;100288.01;1746570;81;21103;-63
2020/12/08 09:53:49;;;;;;;9.53;6.20;;;;;;;-3.60;65.16;100276.34;1747842;82;21561;-62
2020/12/08 09:56:17;;;;;;;17.32;8.35;;;;;;;-3.55;65.21;100273.09;1747432;80;21362;-63
2020/12/08 09:58:45;;;;;;;22.62;7.30;;;;;;;-3.43;65.18;100274.26;1746152;82;21067;-62
2020/12/08 10:01:13;;;;;;;15.58;7.55;;;;;;;-3.33;64.78;100271.13;1746057;82;21060;-63
2020/12/08 10:03:41;;;;;;;13.28;6.45;;;;;;;-3.31;64.60;100273.30;1746127;80;21555;-63
2020/12/08 10:06:11;;;;;;;9.38;5.60;;;;;;;-3.25;63.55;100272.20;1745652;82;21066;-62
2020/12/08 10:08:39;;;;;;;13.62;6.67;;;;;;;-3.26;63.21;100258.63;1696557;82;23540;-63
2020/12/08 10:11:09;;;;;;;12.53;6.83;;;;;;;-3.33;62.98;100261.81;1746077;80;21178;-61
2020/12/08 10:13:38;;;;;;;13.95;6.37;;;;;;;-3.31;63.30;100263.13;1743746;82;21158;-61
2020/12/08 10:16:06;;;;;;;8.50;5.47;;;;;;;-3.28;63.39;100256.45;1746168;82;21178;-62
2020/12/08 10:18:36;;;;;;;11.78;7.30;;;;;;;-3.20;63.29;100257.48;1746061;82;21076;-62
2020/12/08 10:21:06;;;;;;;17.40;7.08;;;;;;;-3.12;63.37;100248.39;1745492;82;22185;-61
2020/12/08 10:23:35;;;;;;;14.83;6.40;;;;;;;-3.12;63.39;100247.52;1746110;82;21909;-62
2020/12/08 10:26:03;;;;;;;13.55;6.35;;;;;;;-3.10;63.55;100254.79;1746225;82;21055;-61
2020/12/08 10:28:31;;;;;;;9.23;5.53;;;;;;;-3.07;63.43;100254.02;1745788;82;21287;-63
2020/12/08 10:30:59;;;;;;;12.18;6.65;;;;;;;-3.10;63.25;100241.20;1745850;82;21480;-62
2020/12/08 10:33:27;;;;;;;19.48;7.65;;;;;;;-3.14;63.49;100244.08;1745139;80;21207;-64
2020/12/08 10:35:56;;;;;;;18.80;8.38;;;;;;;-3.18;63.51;100245.67;1742113;80;21176;-64
2020/12/08 10:38:25;;;;;;;12.65;6.72;;;;;;;-3.17;63.97;100242.72;1745756;82;21531;-62
2020/12/08 10:40:55;;;;;;;24.85;6.40;;;;;;;-3.07;64.06;100240.02;1745419;82;21054;-65
2020/12/08 10:43:30;;;;;;;12.20;5.97;;;;;;;-2.96;63.72;100251.31;1747623;82;21075;-64
2020/12/08 10:46:00;;;;;;;33.92;9.58;;;;;;;-2.94;63.40;100244.58;1746351;80;21372;-64
2020/12/08 10:48:30;;;;;;;13.72;5.90;;;;;;;-2.97;63.44;100241.55;1747811;82;21289;-65
2020/12/08 10:50:59;;;;;;;9.90;5.75;;;;;;;-3.02;63.31;100248.22;1751435;82;21122;-65
2020/12/08 10:53:27;;;;;;;9.75;6.25;;;;;;;-3.05;63.66;100244.33;1747425;80;21554;-66
2020/12/08 10:55:54;;;;;;;13.20;7.03;;;;;;;-3.11;63.61;100236.53;1747819;82;21626;-66
2020/12/08 10:58:23;;;;;;;15.50;7.37;;;;;;;-3.18;63.93;100242.27;1736998;80;21251;-64
2020/12/08 11:00:51;;;;;;;25.00;7.05;;;;;;;-3.29;64.49;100242.41;1748979;81;21182;-66
2020/12/08 11:03:19;;;;;;;15.40;7.58;;;;;;;-3.33;64.63;100242.73;1747750;81;21213;-63
2020/12/08 11:05:47;;;;;;;14.03;6.92;;;;;;;-3.35;65.01;100240.97;1747060;82;21189;-65
2020/12/08 11:08:16;;;;;;;19.85;7.65;;;;;;;-3.34;65.21;100239.74;1750477;81;21524;-66
2020/12/08 11:10:44;;;;;;;19.05;7.47;;;;;;;-3.35;65.40;100244.37;1748859;80;21362;-63
2020/12/08 11:13:14;;;;;;;14.85;8.20;;;;;;;-3.36;65.82;100238.84;1749522;80;21193;-64
2020/12/08 11:15:43;;;;;;;15.05;7.50;;;;;;;-3.37;66.14;100242.61;1747726;80;21129;-66
2020/12/08 11:18:12;;;;;;;12.68;6.58;;;;;;;-3.32;66.20;100238.10;1748278;80;21185;-68
2020/12/08 11:20:42;;;;;;;16.87;7.58;;;;;;;-3.26;65.27;100238.69;1751502;80;22241;-65
2020/12/08 11:23:10;;;;;;;12.15;7.37;;;;;;;-3.29;64.62;100247.50;1752741;80;21363;-65
2020/12/08 11:25:38;;;;;;;12.75;6.58;;;;;;;-3.34;64.21;100241.42;1753282;80;21155;-67